createdAt,value
2019-03-09T00:03:46.490Z,1
2019-03-09T00:08:48.953Z,1
2019-03-09T00:13:51.481Z,1
2019-03-09T00:18:53.881Z,1
2019-03-09T00:23:56.315Z,1
2019-03-09T00:28:58.782Z,1
2019-03-09T00:34:01.409Z,1
2019-03-09T00:39:03.697Z,1
2019-03-09T00:44:06.405Z,1
2019-03-09T00:49:08.611Z,1
2019-03-09T00:54:11.096Z,1
2019-03-09T00:59:13.689Z,1
2019-03-09T01:04:16.009Z,1
2019-03-09T01:09:23.417Z,1
2019-03-09T01:14:25.914Z,1
2019-03-09T01:19:23.490Z,1
2019-03-09T01:24:25.806Z,1
2019-03-09T01:29:28.269Z,1
2019-03-09T01:34:30.730Z,1
2019-03-09T01:39:33.237Z,1
2019-03-09T01:44:35.698Z,1
2019-03-09T01:49:38.112Z,1
2019-03-09T01:54:45.552Z,1
2019-03-09T01:59:43.019Z,1
2019-03-09T02:04:45.492Z,1
2019-03-09T02:09:47.979Z,1
2019-03-09T02:14:50.387Z,1
2019-03-09T02:19:52.855Z,1
2019-03-09T02:24:55.286Z,1
2019-03-09T02:29:57.774Z,1
2019-03-09T02:35:00.448Z,1
2019-03-09T02:40:02.683Z,1
2019-03-09T02:45:05.165Z,1
2019-03-09T02:50:07.622Z,1
2019-03-09T02:55:10.083Z,1
2019-03-09T03:00:17.503Z,1
2019-03-09T03:05:15.005Z,1
2019-03-09T03:10:22.434Z,1
2019-03-09T03:15:20.052Z,1
2019-03-09T03:20:22.651Z,1
2019-03-09T03:25:24.846Z,1
2019-03-09T03:30:27.260Z,1
2019-03-09T03:40:32.198Z,1
2019-03-09T03:45:34.665Z,1
2019-03-09T03:50:37.107Z,1
2019-03-09T03:55:39.542Z,1
2019-03-09T04:00:42.028Z,1
2019-03-09T04:05:44.630Z,1
2019-03-09T04:10:46.956Z,1
2019-03-09T04:15:49.379Z,1
2019-03-09T04:20:52.140Z,1
2019-03-09T04:25:54.311Z,1
2019-03-09T04:30:56.751Z,1
2019-03-09T04:35:59.238Z,1
2019-03-09T04:41:01.676Z,1
2019-03-09T04:46:04.159Z,1
2019-03-09T04:51:06.595Z,1
2019-03-09T04:56:09.105Z,1
2019-03-09T05:01:11.514Z,1
2019-03-09T05:06:13.960Z,1
2019-03-09T05:11:16.490Z,1
2019-03-09T05:16:18.904Z,1
2019-03-09T05:21:26.326Z,1
2019-03-09T05:26:23.785Z,1
2019-03-09T05:31:26.251Z,1
2019-03-09T05:36:28.701Z,1
2019-03-09T05:41:31.215Z,1
2019-03-09T05:46:33.658Z,1
2019-03-09T05:51:36.075Z,1
2019-03-09T05:56:38.811Z,1
2019-03-09T06:01:40.987Z,1
2019-03-09T06:06:43.494Z,1
2019-03-09T06:11:45.944Z,1
2019-03-09T06:16:48.377Z,1
2019-03-09T06:21:51.104Z,1
2019-03-09T06:31:55.928Z,17.8
2019-03-09T06:36:58.180Z,51.4
2019-03-09T06:42:00.683Z,86.8
2019-03-09T06:47:03.263Z,99.9
2019-03-09T06:52:05.566Z,99.9
2019-03-09T06:57:13.697Z,99.9
2019-03-09T07:02:10.470Z,99.9
2019-03-09T07:07:12.926Z,99.9
2019-03-09T07:12:15.411Z,99.9
2019-03-09T07:17:17.853Z,99.9
2019-03-09T07:22:20.598Z,99.9
2019-03-09T07:27:22.777Z,99.9
2019-03-09T07:32:25.230Z,99.9
2019-03-09T07:37:27.665Z,99.9
2019-03-09T07:42:35.169Z,99.9
2019-03-09T07:47:32.648Z,99.9
2019-03-09T07:52:35.032Z,99.9
2019-03-09T07:57:37.497Z,99.9
2019-03-09T08:02:39.976Z,99.9
2019-03-09T08:07:42.432Z,99.9
2019-03-09T08:12:44.859Z,99.9
2019-03-09T08:17:47.366Z,99.9
2019-03-09T08:22:49.817Z,99.9
2019-03-09T08:27:52.294Z,99.9
2019-03-09T08:32:54.752Z,99.9
2019-03-09T08:37:57.184Z,54.4
2019-03-09T08:42:59.619Z,1
2019-03-09T08:48:07.093Z,1
2019-03-09T08:53:04.593Z,1
2019-03-09T08:58:07.027Z,1
2019-03-09T09:03:09.445Z,1
2019-03-09T09:08:11.914Z,1
2019-03-09T09:13:14.390Z,1
2019-03-09T09:18:16.844Z,1
2019-03-09T09:23:24.619Z,1
2019-03-09T09:28:21.743Z,1
2019-03-09T09:33:24.190Z,1
2019-03-09T09:38:26.641Z,1
2019-03-09T09:43:29.237Z,1
2019-03-09T09:48:31.730Z,1
2019-03-09T09:53:34.018Z,1
2019-03-09T09:58:36.619Z,1
2019-03-09T10:03:38.938Z,1
2019-03-09T10:08:41.513Z,1
2019-03-09T10:13:43.878Z,1
2019-03-09T10:18:46.372Z,1
2019-03-09T10:23:49.059Z,1
2019-03-09T10:28:51.247Z,1
2019-03-09T10:33:53.686Z,1
2019-03-09T10:38:56.168Z,1
2019-03-09T10:43:58.602Z,1
2019-03-09T10:49:01.241Z,1
2019-03-09T10:54:03.853Z,1
2019-03-09T11:04:08.424Z,1
2019-03-09T11:09:10.878Z,1
2019-03-09T11:14:13.405Z,1
2019-03-09T11:19:15.814Z,1
2019-03-09T11:24:18.285Z,1
2019-03-09T11:29:20.838Z,1
2019-03-09T11:34:23.180Z,1
2019-03-09T11:39:25.677Z,1
2019-03-09T11:44:28.081Z,1
2019-03-09T11:49:30.606Z,1
2019-03-09T11:54:33.294Z,1
2019-03-09T11:59:35.449Z,1
2019-03-09T12:04:46.244Z,1
2019-03-09T12:09:40.391Z,1
2019-03-09T12:14:42.937Z,1
2019-03-09T12:19:45.357Z,1
2019-03-09T12:24:47.791Z,1
2019-03-09T12:29:50.198Z,1
2019-03-09T12:34:52.641Z,1
2019-03-09T12:39:55.107Z,1
2019-03-09T12:44:57.560Z,1
2019-03-09T12:50:00.017Z,1
2019-03-09T12:55:02.538Z,1
2019-03-09T13:00:05.029Z,1
2019-03-09T13:05:07.439Z,1
2019-03-09T13:10:09.863Z,1
2019-03-09T13:15:12.401Z,1
2019-03-09T13:20:14.766Z,1
2019-03-09T13:25:17.470Z,1
2019-03-09T13:30:19.691Z,1
2019-03-09T13:35:22.244Z,1
2019-03-09T13:40:24.599Z,1
2019-03-09T13:45:27.099Z,1
2019-03-09T13:50:29.516Z,1
2019-03-09T13:55:31.986Z,1
2019-03-09T14:00:40.301Z,1
2019-03-09T14:05:36.937Z,1
2019-03-09T14:10:39.389Z,1
2019-03-09T14:15:41.785Z,1
2019-03-09T14:20:44.272Z,1
2019-03-09T14:25:46.704Z,1
2019-03-09T14:30:49.175Z,1
2019-03-09T14:35:51.679Z,1
2019-03-09T14:40:54.096Z,1
2019-03-09T14:45:56.522Z,1
2019-03-09T14:50:59.056Z,1
2019-03-09T14:56:01.487Z,1
2019-03-09T15:01:03.976Z,1
2019-03-09T15:06:06.470Z,1
2019-03-09T15:11:08.867Z,1
2019-03-09T15:16:11.293Z,1
2019-03-09T15:21:13.746Z,1
2019-03-09T15:26:16.294Z,1
2019-03-09T15:31:18.864Z,1
2019-03-09T15:36:21.113Z,1
2019-03-09T15:41:23.556Z,1
2019-03-09T15:46:26.097Z,1
2019-03-09T15:51:28.510Z,1
2019-03-09T15:56:31.273Z,1
2019-03-09T16:01:33.444Z,1
2019-03-09T16:06:35.848Z,1
2019-03-09T16:11:44.773Z,1
2019-03-09T16:16:40.885Z,1
2019-03-09T16:21:43.240Z,1
2019-03-09T16:26:45.676Z,1
2019-03-09T16:31:48.146Z,1
2019-03-09T16:36:50.605Z,1
2019-03-09T16:41:53.065Z,1
2019-03-09T16:46:55.498Z,1
2019-03-09T16:51:57.967Z,1
2019-03-09T16:57:00.714Z,1
2019-03-09T17:02:07.880Z,1
2019-03-09T17:07:05.433Z,1
2019-03-09T17:12:07.853Z,1
2019-03-09T17:17:10.257Z,1
2019-03-09T17:22:12.780Z,1
2019-03-09T17:27:15.172Z,1
2019-03-09T17:32:25.497Z,9.5
2019-03-09T17:37:20.069Z,69
2019-03-09T17:42:22.532Z,99.9
2019-03-09T17:47:25.017Z,99.9
2019-03-09T17:52:27.573Z,99.9
2019-03-09T17:57:30.202Z,99.9
2019-03-09T18:02:32.393Z,99.9
2019-03-09T18:07:35.062Z,99.9
2019-03-09T18:12:37.303Z,99.9
2019-03-09T18:17:39.755Z,99.9
2019-03-09T18:22:42.325Z,99.9
2019-03-09T18:27:45.014Z,99.9
2019-03-09T18:32:47.130Z,99.9
2019-03-09T18:37:49.576Z,99.9
2019-03-09T18:42:52.038Z,99.9
2019-03-09T18:47:54.499Z,99.9
2019-03-09T18:52:56.976Z,99.9
2019-03-09T18:57:59.423Z,99.9
2019-03-09T19:03:01.929Z,99.9
2019-03-09T19:08:04.408Z,99.9
2019-03-09T19:13:06.818Z,99.9
2019-03-09T19:18:09.270Z,99.9
2019-03-09T19:23:11.857Z,99.9
2019-03-09T19:28:14.514Z,99.9
2019-03-09T19:33:16.628Z,99.9
2019-03-09T19:38:19.116Z,99.9
2019-03-09T19:43:21.547Z,99.9
2019-03-09T19:48:23.993Z,99.9
2019-03-09T19:53:31.472Z,99.9
2019-03-09T19:58:29.219Z,99.9
2019-03-09T20:03:31.439Z,99.9
2019-03-09T20:08:33.831Z,99.9
2019-03-09T20:13:36.660Z,99.9
2019-03-09T20:18:38.748Z,99.9
2019-03-09T20:23:41.220Z,99.9
2019-03-09T20:28:43.666Z,99.9
2019-03-09T20:33:46.272Z,99.9
2019-03-09T20:38:48.603Z,99.9
2019-03-09T20:43:51.045Z,99.9
2019-03-09T20:48:53.487Z,99.9
2019-03-09T20:53:55.955Z,99.9
2019-03-09T20:58:58.508Z,99.9
2019-03-09T21:04:01.138Z,99.9
2019-03-09T21:09:03.343Z,99.9
2019-03-09T21:14:05.784Z,99.9
2019-03-09T21:19:08.239Z,99.9
2019-03-09T21:24:10.732Z,99.9
2019-03-09T21:29:18.156Z,99.9
2019-03-09T21:34:15.600Z,99.9
2019-03-09T21:39:18.064Z,99.9
2019-03-09T21:44:20.528Z,99.9
2019-03-09T21:49:23.052Z,99.9
2019-03-09T21:54:25.430Z,99.9
2019-03-09T21:59:27.890Z,99.9
2019-03-09T22:04:30.384Z,99.9
2019-03-09T22:09:32.837Z,99.9
2019-03-09T22:14:35.287Z,99.9
2019-03-09T22:19:37.719Z,99.9
2019-03-09T22:24:40.292Z,99.9
2019-03-09T22:29:42.926Z,99.9
2019-03-09T22:34:45.097Z,99.9
2019-03-09T22:39:47.622Z,99.9
2019-03-09T22:44:50.076Z,99.9
2019-03-09T22:49:52.532Z,99.9
2019-03-09T22:54:55.065Z,99.9
2019-03-09T22:59:57.706Z,99.9
2019-03-09T23:04:59.881Z,99.9
2019-03-09T23:10:02.398Z,99.9
2019-03-09T23:15:04.826Z,99.9
2019-03-09T23:20:07.261Z,99.9
2019-03-09T23:25:09.765Z,99.9
2019-03-09T23:30:12.530Z,99.9
2019-03-09T23:35:14.658Z,99.9
2019-03-09T23:40:17.112Z,99.9
2019-03-09T23:45:19.598Z,99.9
2019-03-09T23:50:22.043Z,99.9
2019-03-09T23:55:24.558Z,99.9
